Time;durP1;ratioP1;P1;durP2;ratioP2;P2;SDS_P1;SDS_P2;PMS_P1;PMS_P2;Temp;Humidity;BMP_temperature;BMP_pressure;BME280_temperature;BME280_humidity;BME280_pressure;Samples;Min_cycle;Max_cycle;Signal;HPM_P1;HPM_P2
2022/09/12 00:00:48;;;;;;;1.50;1.30;;;15.30;99.90;;;;;;5113899;28;20096;-69
2022/09/12 00:03:14;;;;;;;2.15;1.30;;;15.30;99.90;;;;;;5101509;28;20099;-69
2022/09/12 00:05:44;;;;;;;2.22;1.50;;;15.30;99.90;;;;;;5093207;28;20048;-69
2022/09/12 00:08:10;;;;;;;2.03;1.40;;;15.20;99.90;;;;;;5093428;28;20044;-68
2022/09/12 00:10:41;;;;;;;1.40;1.20;;;15.10;99.90;;;;;;5110613;28;20035;-69
2022/09/12 00:13:07;;;;;;;2.65;1.55;;;15.00;99.90;;;;;;5107875;28;20036;-68
2022/09/12 00:15:37;;;;;;;4.68;2.35;;;15.00;99.90;;;;;;5111114;28;20039;-69
2022/09/12 00:18:03;;;;;;;3.33;1.55;;;14.90;99.90;;;;;;5114474;28;20036;-68
2022/09/12 00:20:29;;;;;;;4.57;2.42;;;14.90;99.90;;;;;;5113672;28;20116;-68
2022/09/12 00:22:55;;;;;;;6.07;3.22;;;14.90;99.90;;;;;;5106723;28;20079;-68
2022/09/12 00:25:20;;;;;;;4.95;3.05;;;14.90;99.90;;;;;;5093277;28;20442;-68
2022/09/12 00:27:46;;;;;;;4.47;3.00;;;14.90;99.90;;;;;;5094132;28;20519;-68
2022/09/12 00:30:11;;;;;;;7.88;4.25;;;14.90;99.90;;;;;;5127006;27;20040;-68
2022/09/12 00:32:37;;;;;;;6.15;3.85;;;14.80;99.90;;;;;;5094360;28;20035;-68
2022/09/12 00:35:03;;;;;;;2.50;1.90;;;14.80;99.90;;;;;;5094225;28;20116;-68
2022/09/12 00:37:28;;;;;;;4.32;2.22;;;14.80;99.90;;;;;;5122360;27;20503;-68
2022/09/12 00:39:54;;;;;;;4.43;2.20;;;14.80;99.90;;;;;;5112415;28;20055;-68
2022/09/12 00:42:19;;;;;;;3.65;2.00;;;14.80;99.90;;;;;;5114338;28;20092;-68
2022/09/12 00:44:49;;;;;;;2.85;1.77;;;14.80;99.90;;;;;;5114501;28;20091;-68
2022/09/12 00:47:26;;;;;;;3.05;2.25;;;14.80;99.90;;;;;;5114355;28;20043;-68
2022/09/12 00:50:06;;;;;;;5.15;2.58;;;14.80;99.90;;;;;;5113802;28;20105;-69
2022/09/12 00:52:41;;;;;;;4.43;2.50;;;14.80;99.90;;;;;;5114195;28;20096;-68
2022/09/12 00:55:18;;;;;;;4.57;2.38;;;14.70;99.90;;;;;;5075663;28;20040;-68
2022/09/12 00:57:58;;;;;;;1.70;1.55;;;14.70;99.90;;;;;;5093918;28;20036;-68
2022/09/12 01:00:26;;;;;;;2.70;1.90;;;14.60;99.90;;;;;;5093763;28;20089;-67
2022/09/12 01:02:59;;;;;;;3.05;2.20;;;14.50;99.90;;;;;;5093682;28;20044;-68
2022/09/12 01:05:28;;;;;;;5.25;2.65;;;14.40;99.90;;;;;;5093536;28;20062;-68
2022/09/12 01:07:55;;;;;;;5.20;3.30;;;14.40;99.90;;;;;;5093581;28;20122;-68
2022/09/12 01:10:21;;;;;;;5.65;3.35;;;14.30;99.90;;;;;;5108473;27;20075;-68
2022/09/12 01:12:47;;;;;;;5.30;3.53;;;14.30;99.90;;;;;;5107578;28;20028;-69
2022/09/12 01:15:13;;;;;;;7.75;4.00;;;14.40;99.90;;;;;;5126330;27;20043;-69
2022/09/12 01:17:57;;;;;;;7.10;4.32;;;14.30;99.90;;;;;;5092966;28;20412;-68
2022/09/12 01:20:44;;;;;;;8.32;4.18;;;14.30;99.90;;;;;;5109965;28;20035;-68
2022/09/12 01:23:44;;;;;;;7.60;4.50;;;14.30;99.90;;;;;;5104235;28;20036;-68
2022/09/12 01:26:35;;;;;;;8.20;6.05;;;14.30;99.90;;;;;;5093523;28;20076;-68
2022/09/12 01:29:21;;;;;;;9.27;6.95;;;14.30;99.90;;;;;;5093518;28;20051;-68
2022/09/12 01:32:11;;;;;;;8.23;6.60;;;14.30;99.90;;;;;;5081871;28;20063;-67
2022/09/12 01:34:45;;;;;;;7.38;5.20;;;14.30;99.90;;;;;;5093284;28;20489;-67
2022/09/12 01:37:43;;;;;;;6.70;4.07;;;14.40;99.90;;;;;;5091929;28;20080;-67
2022/09/12 01:40:31;;;;;;;5.25;3.40;;;14.30;99.90;;;;;;5108480;28;20043;-68
2022/09/12 01:43:20;;;;;;;5.78;2.88;;;14.30;99.90;;;;;;5113723;28;20035;-68
2022/09/12 01:45:48;;;;;;;4.53;2.85;;;14.20;99.90;;;;;;5098535;28;20491;-68
2022/09/12 01:48:19;;;;;;;4.65;2.90;;;14.20;99.90;;;;;;5112116;28;20031;-68
2022/09/12 01:51:03;;;;;;;4.88;3.10;;;14.10;99.90;;;;;;5113440;28;20040;-68
2022/09/12 01:53:35;;;;;;;4.80;3.00;;;14.10;99.90;;;;;;5091377;28;20044;-68
2022/09/12 01:56:21;;;;;;;6.88;4.10;;;14.00;99.90;;;;;;5092797;28;20377;-68
2022/09/12 01:58:56;;;;;;;7.38;5.35;;;14.00;99.90;;;;;;5093067;28;20559;-68
2022/09/12 02:01:32;;;;;;;8.30;6.13;;;14.00;99.90;;;;;;5093097;28;20052;-68
2022/09/12 02:04:22;;;;;;;9.52;7.45;;;14.00;99.90;;;;;;5095648;28;20522;-68
2022/09/12 02:06:58;;;;;;;8.77;7.07;;;14.10;99.90;;;;;;5097160;28;20032;-67
2022/09/12 02:09:43;;;;;;;10.38;7.30;;;14.10;99.90;;;;;;5105950;28;20502;-68
2022/09/12 02:12:12;;;;;;;8.30;6.35;;;14.10;99.90;;;;;;5114780;28;20036;-68
2022/09/12 02:14:44;;;;;;;8.80;6.70;;;14.10;99.90;;;;;;5116423;27;20031;-68
2022/09/12 02:17:21;;;;;;;8.95;7.30;;;14.10;99.90;;;;;;5117318;28;20111;-67
2022/09/12 02:19:56;;;;;;;9.88;7.80;;;14.10;99.90;;;;;;5107766;28;20439;-68
2022/09/12 02:22:25;;;;;;;12.38;8.05;;;14.10;99.90;;;;;;5108322;28;20131;-68
2022/09/12 02:24:58;;;;;;;12.20;10.05;;;14.10;99.90;;;;;;5103268;27;20055;-68
2022/09/12 02:27:31;;;;;;;9.93;8.07;;;14.20;99.90;;;;;;5108556;27;20064;-68
2022/09/12 02:29:57;;;;;;;11.68;9.80;;;14.20;99.90;;;;;;5097193;28;20064;-68
2022/09/12 02:32:27;;;;;;;11.38;9.73;;;14.20;99.90;;;;;;5106120;28;20062;-68
2022/09/12 02:35:06;;;;;;;10.82;9.45;;;14.20;99.90;;;;;;5099418;28;20122;-68
2022/09/12 02:37:53;;;;;;;11.23;9.40;;;14.20;99.90;;;;;;5141496;27;20050;-68
2022/09/12 02:40:19;;;;;;;11.43;9.00;;;14.20;99.90;;;;;;5110434;28;20047;-68
2022/09/12 02:42:44;;;;;;;9.88;8.05;;;14.10;99.90;;;;;;5098488;28;20032;-67
2022/09/12 02:45:11;;;;;;;8.23;5.93;;;14.10;99.90;;;;;;5110392;28;20042;-68
2022/09/12 02:47:50;;;;;;;7.30;5.68;;;14.10;99.90;;;;;;5099680;28;20039;-68
2022/09/12 02:50:16;;;;;;;9.45;6.75;;;14.10;99.90;;;;;;5115412;28;20484;-68
2022/09/12 02:52:42;;;;;;;7.22;5.40;;;14.10;99.90;;;;;;5104297;28;20059;-67
2022/09/12 02:55:12;;;;;;;8.32;6.55;;;14.10;99.90;;;;;;5115447;28;20488;-68
2022/09/12 02:57:38;;;;;;;8.10;6.35;;;14.00;99.90;;;;;;5126489;27;20536;-68
2022/09/12 03:00:05;;;;;;;9.15;7.65;;;13.90;99.90;;;;;;5096151;28;20124;-69
2022/09/12 03:02:50;;;;;;;10.95;9.23;;;13.80;99.90;;;;;;5106918;28;20035;-68
2022/09/12 03:05:28;;;;;;;12.40;10.85;;;13.90;99.90;;;;;;5101487;28;20047;-68
2022/09/12 03:08:12;;;;;;;13.98;11.20;;;13.90;99.90;;;;;;5105268;28;20040;-68
2022/09/12 03:11:08;;;;;;;13.68;11.57;;;13.80;99.90;;;;;;5096195;28;20070;-68
2022/09/12 03:13:52;;;;;;;16.77;12.45;;;13.90;99.90;;;;;;5094663;28;20052;-68
2022/09/12 03:16:39;;;;;;;15.88;11.63;;;13.90;99.90;;;;;;5114974;28;20031;-68
2022/09/12 03:19:33;;;;;;;15.48;12.75;;;13.90;99.90;;;;;;5099480;28;20093;-67
2022/09/12 03:22:22;;;;;;;14.23;11.65;;;14.10;99.90;;;;;;5114148;28;20039;-67
2022/09/12 03:24:58;;;;;;;15.02;12.07;;;14.10;99.90;;;;;;5101762;28;20040;-68
2022/09/12 03:27:32;;;;;;;13.73;12.23;;;14.10;99.90;;;;;;5114953;27;20046;-68
2022/09/12 03:29:59;;;;;;;16.83;13.38;;;14.20;99.90;;;;;;5102014;28;20071;-67
2022/09/12 03:32:44;;;;;;;15.25;13.23;;;14.20;99.90;;;;;;5113323;28;20071;-68
2022/09/12 03:35:11;;;;;;;17.65;14.48;;;14.30;99.90;;;;;;5107995;28;20396;-69
2022/09/12 03:37:37;;;;;;;18.45;15.15;;;14.30;99.90;;;;;;5115616;28;20035;-68
2022/09/12 03:40:04;;;;;;;17.92;15.57;;;14.20;99.90;;;;;;5114364;28;20546;-68
2022/09/12 03:42:30;;;;;;;18.02;14.95;;;14.10;99.90;;;;;;5114410;28;20046;-68
2022/09/12 03:44:55;;;;;;;17.85;15.95;;;14.10;99.90;;;;;;5096020;28;20040;-68
2022/09/12 03:47:21;;;;;;;19.60;15.63;;;14.00;99.90;;;;;;5107787;28;20653;-67
2022/09/12 03:49:46;;;;;;;18.88;16.30;;;14.00;99.90;;;;;;5115301;28;20054;-68
2022/09/12 03:52:12;;;;;;;21.45;16.88;;;14.00;99.90;;;;;;5115322;28;20062;-68
2022/09/12 03:54:38;;;;;;;17.70;15.00;;;13.90;99.90;;;;;;5115661;28;20038;-68
2022/09/12 03:57:04;;;;;;;15.63;13.63;;;14.00;99.90;;;;;;5115436;27;20047;-68
2022/09/12 03:59:30;;;;;;;15.43;13.32;;;14.00;99.90;;;;;;5114704;28;20040;-67
2022/09/12 04:01:56;;;;;;;16.38;13.98;;;14.00;99.90;;;;;;5112612;28;20032;-67
2022/09/12 04:04:21;;;;;;;19.17;15.77;;;13.90;99.90;;;;;;5108198;27;20052;-68
2022/09/12 04:06:47;;;;;;;18.80;15.93;;;13.90;99.90;;;;;;5107364;28;20047;-67
2022/09/12 04:09:13;;;;;;;18.48;16.48;;;13.90;99.90;;;;;;5114194;28;20037;-68
2022/09/12 04:11:38;;;;;;;17.90;15.05;;;14.00;99.90;;;;;;5106686;28;20050;-68
2022/09/12 04:14:04;;;;;;;16.40;14.48;;;13.90;99.90;;;;;;5103342;28;20035;-67
2022/09/12 04:16:31;;;;;;;17.23;15.07;;;13.90;99.90;;;;;;5114875;28;20039;-67
2022/09/12 04:18:56;;;;;;;19.33;16.52;;;13.90;99.90;;;;;;5101802;28;20035;-68
2022/09/12 04:21:22;;;;;;;18.70;16.70;;;13.80;99.90;;;;;;5094283;28;20044;-67
2022/09/12 04:23:48;;;;;;;21.10;17.77;;;13.80;99.90;;;;;;5094493;28;20040;-67
2022/09/12 04:26:14;;;;;;;18.10;15.63;;;13.90;99.90;;;;;;5094453;28;20039;-67
2022/09/12 04:28:40;;;;;;;19.17;16.58;;;13.90;99.90;;;;;;5094168;28;20043;-68
2022/09/12 04:31:17;;;;;;;21.42;18.13;;;13.90;99.90;;;;;;5098271;28;20049;-68
2022/09/12 04:33:43;;;;;;;19.58;17.05;;;13.90;99.90;;;;;;5112762;28;20043;-68
2022/09/12 04:36:15;;;;;;;20.33;17.10;;;13.90;99.90;;;;;;5094316;28;20044;-68
2022/09/12 04:38:43;;;;;;;17.88;15.23;;;13.90;99.90;;;;;;5094090;28;20032;-68
2022/09/12 04:41:18;;;;;;;17.80;15.90;;;13.80;99.90;;;;;;5094155;28;20044;-68
2022/09/12 04:43:45;;;;;;;19.80;16.88;;;13.80;99.90;;;;;;5075966;28;20047;-68
2022/09/12 04:46:14;;;;;;;19.90;17.23;;;13.80;99.90;;;;;;5093883;28;20050;-68
2022/09/12 04:48:39;;;;;;;20.55;17.70;;;13.80;99.90;;;;;;5093895;28;20431;-68
2022/09/12 04:51:11;;;;;;;21.50;18.30;;;13.80;99.90;;;;;;5094327;28;20036;-68
2022/09/12 04:53:37;;;;;;;22.30;17.90;;;13.90;99.90;;;;;;5093986;28;20039;-68
2022/09/12 04:56:05;;;;;;;19.35;17.05;;;13.90;99.90;;;;;;5109639;28;20046;-68
2022/09/12 04:58:32;;;;;;;20.30;17.00;;;13.90;99.90;;;;;;5093631;28;20047;-68
2022/09/12 05:01:09;;;;;;;19.83;16.58;;;13.90;99.90;;;;;;5096480;28;20552;-68
2022/09/12 05:03:37;;;;;;;20.67;16.95;;;14.00;99.90;;;;;;5113102;28;20054;-68
2022/09/12 05:06:07;;;;;;;21.38;17.35;;;14.00;99.90;;;;;;5114006;28;20083;-68
2022/09/12 05:08:36;;;;;;;19.75;17.35;;;14.00;99.90;;;;;;5105694;28;20039;-68
2022/09/12 05:11:04;;;;;;;22.48;18.17;;;14.10;99.90;;;;;;5093399;28;20088;-68
2022/09/12 05:13:30;;;;;;;21.58;18.08;;;14.10;99.90;;;;;;5102816;27;20072;-68
2022/09/12 05:15:57;;;;;;;22.63;18.95;;;14.20;99.90;;;;;;5113067;28;20476;-68
2022/09/12 05:18:23;;;;;;;22.75;19.50;;;14.30;99.90;;;;;;5111224;28;20047;-68
2022/09/12 05:20:48;;;;;;;21.67;17.92;;;14.30;99.90;;;;;;5111610;28;20039;-68
2022/09/12 05:23:14;;;;;;;25.35;19.52;;;14.30;99.90;;;;;;5102522;28;20121;-68
2022/09/12 05:25:50;;;;;;;24.73;20.40;;;14.30;99.90;;;;;;5095964;28;20043;-68
2022/09/12 05:28:16;;;;;;;23.00;19.23;;;14.40;99.90;;;;;;5112449;28;20046;-68
2022/09/12 05:30:41;;;;;;;23.20;19.58;;;14.40;99.90;;;;;;5109384;27;20043;-68
2022/09/12 05:33:07;;;;;;;25.10;20.55;;;14.40;99.90;;;;;;5134225;28;20042;-68
2022/09/12 05:35:33;;;;;;;26.35;20.00;;;14.40;99.90;;;;;;5114785;28;20110;-68
2022/09/12 05:37:58;;;;;;;23.77;20.33;;;14.50;99.90;;;;;;5101067;28;20043;-68
2022/09/12 05:40:24;;;;;;;25.02;21.10;;;14.40;99.90;;;;;;5129479;27;20043;-68
2022/09/12 05:42:49;;;;;;;24.20;19.58;;;14.40;99.90;;;;;;5110409;28;20131;-68
2022/09/12 05:45:15;;;;;;;24.98;20.35;;;14.40;99.90;;;;;;5104336;28;20063;-68
2022/09/12 05:47:42;;;;;;;26.48;20.60;;;14.30;99.90;;;;;;5107776;27;20043;-68
2022/09/12 05:50:09;;;;;;;27.35;21.05;;;14.40;99.90;;;;;;5118025;28;20118;-68
2022/09/12 05:52:36;;;;;;;25.75;21.85;;;14.50;99.90;;;;;;5116577;28;20055;-68
2022/09/12 05:55:02;;;;;;;27.23;22.48;;;14.50;99.90;;;;;;5118449;27;20163;-68
2022/09/12 05:57:28;;;;;;;27.90;22.10;;;14.60;99.90;;;;;;5109426;27;20508;-68
2022/09/12 05:59:53;;;;;;;28.05;23.60;;;14.60;99.90;;;;;;5118192;28;20085;-68
2022/09/12 06:02:19;;;;;;;27.92;22.98;;;14.60;99.90;;;;;;5118254;27;20044;-68
2022/09/12 06:04:45;;;;;;;28.13;23.05;;;14.60;99.90;;;;;;5111611;27;20048;-69
2022/09/12 06:07:10;;;;;;;27.73;23.05;;;14.60;99.90;;;;;;5102828;28;20032;-68
2022/09/12 06:09:36;;;;;;;28.40;22.75;;;14.70;99.90;;;;;;5115157;27;20554;-68
2022/09/12 06:12:02;;;;;;;30.13;23.70;;;14.70;99.90;;;;;;5115159;28;20391;-68
2022/09/12 06:14:28;;;;;;;31.23;24.20;;;14.80;99.90;;;;;;5117036;28;20032;-68
2022/09/12 06:16:54;;;;;;;31.90;24.20;;;14.70;99.90;;;;;;5109442;28;20104;-69
2022/09/12 06:19:22;;;;;;;31.25;24.30;;;14.80;99.90;;;;;;5101255;28;20055;-69
2022/09/12 06:21:48;;;;;;;34.75;25.15;;;14.80;99.90;;;;;;5110007;28;20110;-69
2022/09/12 06:24:14;;;;;;;33.85;26.38;;;14.90;99.90;;;;;;5103212;27;20034;-69
2022/09/12 06:26:42;;;;;;;31.55;25.70;;;14.90;99.90;;;;;;5111110;27;20051;-68
2022/09/12 06:29:10;;;;;;;32.28;25.85;;;14.80;99.90;;;;;;5106525;27;20222;-69
2022/09/12 06:31:40;;;;;;;31.77;25.00;;;14.90;99.90;;;;;;5108149;28;20377;-69
2022/09/12 06:34:07;;;;;;;31.60;25.52;;;14.80;99.90;;;;;;5123676;27;20138;-69
2022/09/12 06:36:36;;;;;;;32.38;25.65;;;14.90;99.90;;;;;;5111864;27;20046;-69
2022/09/12 06:39:10;;;;;;;32.90;25.30;;;15.00;99.90;;;;;;5098563;28;20488;-68
2022/09/12 06:41:36;;;;;;;33.35;25.30;;;15.00;99.90;;;;;;5100612;28;20031;-69
2022/09/12 06:44:02;;;;;;;33.70;26.38;;;15.00;99.90;;;;;;5104589;28;20396;-68
2022/09/12 06:46:29;;;;;;;34.53;26.65;;;15.00;99.90;;;;;;5119307;28;20035;-68
2022/09/12 06:48:56;;;;;;;34.03;27.38;;;15.10;99.90;;;;;;5108646;28;20035;-68
2022/09/12 06:51:22;;;;;;;34.53;26.85;;;15.10;99.90;;;;;;5115635;27;20035;-68
2022/09/12 06:53:48;;;;;;;36.35;28.48;;;15.20;99.90;;;;;;5101055;27;20043;-68
2022/09/12 06:56:18;;;;;;;37.65;26.63;;;15.20;99.90;;;;;;5094866;28;20040;-69
2022/09/12 06:58:44;;;;;;;36.60;27.48;;;15.30;99.90;;;;;;5101744;28;20106;-69
2022/09/12 07:01:21;;;;;;;37.20;27.25;;;15.30;99.90;;;;;;5114657;27;20092;-69
2022/09/12 07:03:50;;;;;;;36.67;28.48;;;15.30;99.90;;;;;;5115898;28;20040;-69
2022/09/12 07:06:18;;;;;;;34.65;26.80;;;15.30;99.90;;;;;;5115325;27;20036;-69
2022/09/12 07:08:44;;;;;;;36.33;27.50;;;15.30;99.90;;;;;;5108026;27;20484;-69
2022/09/12 07:11:14;;;;;;;34.08;27.20;;;15.30;99.90;;;;;;5100730;28;20059;-69
2022/09/12 07:13:41;;;;;;;39.38;27.65;;;15.30;99.90;;;;;;5105636;28;20042;-69
2022/09/12 07:16:08;;;;;;;35.42;26.60;;;15.40;99.90;;;;;;5096506;28;20169;-69
2022/09/12 07:18:36;;;;;;;39.17;28.23;;;15.40;99.90;;;;;;5094575;28;20125;-69
2022/09/12 07:21:03;;;;;;;35.97;26.90;;;15.30;99.90;;;;;;5094626;28;20047;-68
2022/09/12 07:23:29;;;;;;;34.58;26.60;;;15.40;99.90;;;;;;5137038;27;20124;-69
2022/09/12 07:25:56;;;;;;;35.88;27.05;;;15.50;99.90;;;;;;5107176;28;20129;-68
2022/09/12 07:28:26;;;;;;;35.75;26.92;;;15.50;99.90;;;;;;5095384;28;20047;-68
2022/09/12 07:30:52;;;;;;;38.15;27.95;;;15.50;99.90;;;;;;5100221;28;20084;-68
2022/09/12 07:33:23;;;;;;;33.90;25.60;;;15.50;99.90;;;;;;5108194;28;20111;-69
2022/09/12 07:35:48;;;;;;;36.10;26.48;;;15.60;99.90;;;;;;5097581;28;20081;-69
2022/09/12 07:38:15;;;;;;;36.55;25.38;;;15.70;99.90;;;;;;5114253;28;20120;-68
2022/09/12 07:40:41;;;;;;;38.45;27.20;;;15.80;99.90;;;;;;5109963;28;20098;-69
2022/09/12 07:43:06;;;;;;;34.17;26.45;;;15.80;99.90;;;;;;5111250;28;20067;-69
2022/09/12 07:45:32;;;;;;;32.15;22.90;;;15.90;99.90;;;;;;5111698;28;20045;-76
2022/09/12 07:47:57;;;;;;;38.60;25.63;;;15.90;99.90;;;;;;5105803;28;20039;-78
2022/09/12 07:50:23;;;;;;;35.90;25.75;;;15.90;99.90;;;;;;5105740;28;20036;-77
2022/09/12 07:52:49;;;;;;;34.45;24.88;;;15.90;99.90;;;;;;5100404;28;20059;-76
2022/09/12 07:55:15;;;;;;;37.45;26.13;;;16.10;99.90;;;;;;5106367;28;20084;-68
2022/09/12 07:57:41;;;;;;;36.22;26.10;;;16.10;99.90;;;;;;5098584;28;20036;-68
2022/09/12 08:00:07;;;;;;;35.10;25.27;;;16.00;99.90;;;;;;5106190;28;20549;-68
2022/09/12 08:02:33;;;;;;;32.08;24.25;;;16.10;99.90;;;;;;5095527;28;20070;-68
2022/09/12 08:04:59;;;;;;;33.10;23.92;;;16.10;99.90;;;;;;5108169;28;20075;-68
2022/09/12 08:07:25;;;;;;;31.95;23.67;;;16.10;99.90;;;;;;5094032;28;20388;-68
2022/09/12 08:09:52;;;;;;;29.77;22.15;;;16.10;99.90;;;;;;5097952;28;20042;-68
2022/09/12 08:12:19;;;;;;;34.13;24.40;;;16.10;99.90;;;;;;5094574;28;20135;-68
2022/09/12 08:14:45;;;;;;;29.73;22.25;;;16.20;99.90;;;;;;5126645;27;20047;-68
2022/09/12 08:17:10;;;;;;;29.35;20.48;;;16.30;99.90;;;;;;5094408;28;20071;-68
2022/09/12 08:19:37;;;;;;;30.15;21.55;;;16.20;99.90;;;;;;5103341;28;20063;-68
2022/09/12 08:22:03;;;;;;;30.42;22.35;;;16.40;99.90;;;;;;5103405;28;20416;-68
2022/09/12 08:24:29;;;;;;;29.25;20.42;;;16.40;99.90;;;;;;5093295;28;20372;-68
2022/09/12 08:26:54;;;;;;;27.52;19.67;;;16.40;99.90;;;;;;5093751;28;20081;-68
2022/09/12 08:29:20;;;;;;;30.40;21.92;;;16.50;99.90;;;;;;5105915;28;20487;-68
2022/09/12 08:31:46;;;;;;;29.20;21.30;;;16.60;99.90;;;;;;5080927;28;20036;-69
2022/09/12 08:34:11;;;;;;;29.63;21.05;;;16.60;99.90;;;;;;5107728;28;20040;-68
2022/09/12 08:36:37;;;;;;;26.35;18.92;;;16.60;99.90;;;;;;5097104;28;20028;-68
2022/09/12 08:39:05;;;;;;;26.63;19.38;;;16.80;99.90;;;;;;5092307;28;20071;-68
2022/09/12 08:41:35;;;;;;;28.08;19.92;;;16.80;99.90;;;;;;5110993;28;20039;-69
2022/09/12 08:44:28;;;;;;;30.17;21.48;;;16.70;99.90;;;;;;5112697;28;20046;-68
2022/09/12 08:47:05;;;;;;;26.80;21.13;;;16.80;99.90;;;;;;5108357;28;20035;-68
2022/09/12 08:49:34;;;;;;;27.42;20.50;;;16.80;99.90;;;;;;5127844;27;20031;-68
2022/09/12 08:52:05;;;;;;;30.55;20.88;;;16.80;99.90;;;;;;5093230;28;20043;-68
2022/09/12 08:54:32;;;;;;;26.73;19.80;;;16.80;99.90;;;;;;5123217;27;20041;-68
2022/09/12 08:57:02;;;;;;;26.90;19.48;;;16.80;99.90;;;;;;5094706;28;20032;-68
2022/09/12 08:59:40;;;;;;;27.17;20.45;;;16.90;99.90;;;;;;5108302;27;20035;-68
2022/09/12 09:02:34;;;;;;;27.80;20.92;;;16.90;99.90;;;;;;5108292;28;20043;-68
2022/09/12 09:05:19;;;;;;;28.13;20.55;;;17.10;99.90;;;;;;5095362;28;20047;-68
2022/09/12 09:08:05;;;;;;;27.65;19.42;;;17.10;99.90;;;;;;5098281;28;20047;-68
2022/09/12 09:10:37;;;;;;;28.73;20.40;;;17.10;99.90;;;;;;5108058;28;20044;-68
2022/09/12 09:13:13;;;;;;;26.30;20.17;;;17.20;99.90;;;;;;5099300;28;20043;-68
2022/09/12 09:15:53;;;;;;;28.10;20.42;;;17.20;99.90;;;;;;5089384;28;20047;-68
2022/09/12 09:18:25;;;;;;;27.63;21.58;;;17.30;99.90;;;;;;5092782;28;20040;-68
2022/09/12 09:20:58;;;;;;;30.75;21.50;;;17.30;99.90;;;;;;5094646;28;20115;-68
2022/09/12 09:23:38;;;;;;;30.17;22.50;;;17.40;99.90;;;;;;5098882;28;20028;-68
2022/09/12 09:26:07;;;;;;;29.80;21.05;;;17.40;99.90;;;;;;5107869;28;20032;-69
2022/09/12 09:28:51;;;;;;;30.80;22.77;;;17.60;99.90;;;;;;5079414;28;20039;-68
2022/09/12 09:31:19;;;;;;;29.25;20.52;;;17.80;99.90;;;;;;5094844;28;20426;-68
2022/09/12 09:33:48;;;;;;;31.20;22.52;;;17.90;99.90;;;;;;5094335;28;20028;-68
2022/09/12 09:36:38;;;;;;;34.55;24.48;;;17.90;99.90;;;;;;5096521;28;20032;-68
2022/09/12 09:39:23;;;;;;;36.35;25.17;;;18.00;99.90;;;;;;5112195;28;20092;-68
2022/09/12 09:42:18;;;;;;;33.60;23.75;;;18.30;99.90;;;;;;5109217;28;20475;-68
2022/09/12 09:44:47;;;;;;;33.13;24.92;;;18.30;99.90;;;;;;5100795;28;20046;-68
2022/09/12 09:47:12;;;;;;;37.63;26.70;;;18.40;99.90;;;;;;5109036;28;20030;-68
2022/09/12 09:49:38;;;;;;;38.30;24.70;;;18.50;99.90;;;;;;5101095;28;20491;-68
2022/09/12 09:52:07;;;;;;;37.00;27.00;;;18.60;99.90;;;;;;5112726;28;20046;-69
2022/09/12 09:54:39;;;;;;;38.53;26.73;;;18.70;99.90;;;;;;5101717;28;20058;-68
2022/09/12 09:57:33;;;;;;;35.28;24.58;;;18.70;99.90;;;;;;5109661;28;20044;-69
2022/09/12 10:00:28;;;;;;;36.30;23.80;;;18.80;99.90;;;;;;5108003;28;20040;-68
2022/09/12 10:03:08;;;;;;;38.72;25.67;;;19.10;99.90;;;;;;5100007;28;20119;-68
2022/09/12 10:05:46;;;;;;;38.00;26.33;;;19.20;99.90;;;;;;5095643;28;20417;-68
2022/09/12 10:08:34;;;;;;;36.88;25.23;;;19.30;99.90;;;;;;5110068;28;20499;-69
2022/09/12 10:11:14;;;;;;;40.20;26.85;;;19.30;99.90;;;;;;5104468;28;20040;-68
2022/09/12 10:13:53;;;;;;;39.58;26.42;;;19.40;99.90;;;;;;5111458;28;20047;-68
2022/09/12 10:16:46;;;;;;;40.97;27.42;;;19.50;99.90;;;;;;5088769;28;20043;-69
2022/09/12 10:19:24;;;;;;;40.85;26.55;;;19.40;99.90;;;;;;5110308;28;20118;-68
2022/09/12 10:21:54;;;;;;;39.65;26.83;;;19.50;99.90;;;;;;5091735;28;20455;-69
2022/09/12 10:24:22;;;;;;;39.28;26.90;;;19.50;99.90;;;;;;5097600;28;20044;-68
2022/09/12 10:26:56;;;;;;;39.28;26.77;;;19.50;99.90;;;;;;5100926;28;20096;-69
2022/09/12 10:29:28;;;;;;;36.92;23.40;;;19.70;99.90;;;;;;5098457;28;20036;-69
2022/09/12 10:31:58;;;;;;;33.90;22.48;;;19.70;99.90;;;;;;5102978;28;20024;-68
2022/09/12 10:34:31;;;;;;;30.33;20.70;;;19.70;99.90;;;;;;5104461;28;20080;-68
2022/09/12 10:37:22;;;;;;;29.00;20.33;;;19.80;99.90;;;;;;5096975;28;20032;-69
2022/09/12 10:39:52;;;;;;;34.42;22.17;;;19.90;99.90;;;;;;5102847;28;20507;-69
2022/09/12 10:42:42;;;;;;;30.30;20.83;;;20.00;99.90;;;;;;5099223;28;20035;-69
2022/09/12 10:45:34;;;;;;;33.28;22.35;;;20.00;99.90;;;;;;5099419;28;20532;-69
2022/09/12 10:48:03;;;;;;;32.45;21.27;;;20.10;99.90;;;;;;5093758;28;20097;-69
2022/09/12 10:50:42;;;;;;;31.55;21.55;;;20.10;99.90;;;;;;5110359;28;20170;-68
2022/09/12 10:53:28;;;;;;;32.92;21.45;;;20.20;99.90;;;;;;5105280;28;20035;-69
2022/09/12 10:56:13;;;;;;;29.25;19.80;;;20.20;99.90;;;;;;5105158;28;20548;-69
2022/09/12 10:59:04;;;;;;;31.33;20.85;;;20.30;99.90;;;;;;5088324;28;20047;-69
2022/09/12 11:01:43;;;;;;;31.52;20.50;;;20.40;99.90;;;;;;5104247;28;20507;-69
2022/09/12 11:04:14;;;;;;;27.02;18.92;;;20.50;99.90;;;;;;5114834;28;20441;-68
2022/09/12 11:07:11;;;;;;;24.50;18.00;;;20.50;99.90;;;;;;5115438;28;20392;-68
2022/09/12 11:09:51;;;;;;;25.48;19.27;;;20.50;99.90;;;;;;5095819;28;20064;-69
2022/09/12 11:12:43;;;;;;;23.95;16.30;;;20.60;99.90;;;;;;5106753;28;20039;-69
2022/09/12 11:15:21;;;;;;;21.08;15.95;;;20.60;99.90;;;;;;5107244;28;20401;-69
2022/09/12 11:17:59;;;;;;;25.58;16.52;;;20.60;99.90;;;;;;5096923;27;20042;-68
2022/09/12 11:20:28;;;;;;;22.33;16.33;;;20.60;99.90;;;;;;5094278;28;20036;-68
2022/09/12 11:23:25;;;;;;;21.77;16.13;;;20.70;99.90;;;;;;5095584;28;20047;-68
2022/09/12 11:25:50;;;;;;;21.58;14.23;;;20.70;99.90;;;;;;5095494;28;20480;-68
2022/09/12 11:28:34;;;;;;;20.42;13.68;;;20.70;99.90;;;;;;5108030;27;20039;-69
2022/09/12 11:31:37;;;;;;;18.35;14.13;;;20.80;99.90;;;;;;5105966;28;20492;-69
2022/09/12 11:34:08;;;;;;;19.02;12.68;;;20.80;99.90;;;;;;5110319;28;20039;-69
2022/09/12 11:37:04;;;;;;;19.13;13.25;;;20.90;99.90;;;;;;5100614;28;20059;-69
2022/09/12 11:39:39;;;;;;;19.55;14.48;;;20.90;99.90;;;;;;5107777;28;20058;-69
2022/09/12 11:42:12;;;;;;;18.75;13.35;;;20.90;99.90;;;;;;5104826;28;20067;-69
2022/09/12 11:44:43;;;;;;;19.83;15.20;;;20.90;99.90;;;;;;5115510;28;20047;-69
2022/09/12 11:47:12;;;;;;;16.90;12.23;;;20.90;99.90;;;;;;5092871;28;20066;-69
2022/09/12 11:49:49;;;;;;;16.73;11.52;;;21.00;99.90;;;;;;5107664;28;20376;-69
2022/09/12 11:52:24;;;;;;;16.67;11.50;;;21.00;99.90;;;;;;5115420;28;20086;-68
2022/09/12 11:55:07;;;;;;;15.98;11.07;;;21.00;99.90;;;;;;5114614;28;20035;-69
2022/09/12 11:57:39;;;;;;;18.17;12.07;;;21.10;99.90;;;;;;5099159;27;20044;-69
2022/09/12 12:00:07;;;;;;;19.77;14.18;;;21.10;99.90;;;;;;5097856;27;20076;-69
2022/09/12 12:02:48;;;;;;;17.45;13.30;;;21.10;99.90;;;;;;5093759;28;20484;-69
2022/09/12 12:05:25;;;;;;;18.03;12.90;;;21.10;99.90;;;;;;5094699;28;20052;-69
2022/09/12 12:07:56;;;;;;;20.92;14.10;;;21.20;99.90;;;;;;5100158;28;20502;-79
2022/09/12 12:10:35;;;;;;;18.70;13.07;;;21.20;99.90;;;;;;5116042;27;20038;-80
2022/09/12 12:13:06;;;;;;;19.98;14.13;;;21.20;99.90;;;;;;5105435;27;20039;-80
2022/09/12 12:15:34;;;;;;;;;;;21.20;99.90;;;;;;5094949;28;20071;-79
2022/09/12 12:18:04;;;;;;;17.45;12.52;;;21.20;99.90;;;;;;5094479;28;19916;-79
2022/09/12 12:20:29;;;;;;;19.48;14.07;;;21.20;99.90;;;;;;5114705;27;20031;-79
2022/09/12 12:22:55;;;;;;;18.23;12.70;;;21.30;99.90;;;;;;5114897;28;20423;-80
2022/09/12 12:25:50;;;;;;;16.08;11.98;;;21.30;99.90;;;;;;5111976;27;20070;-80
2022/09/12 12:28:41;;;;;;;17.50;11.25;;;21.50;99.90;;;;;;5115640;27;20042;-80
2022/09/12 12:31:09;;;;;;;16.45;11.45;;;21.60;99.90;;;;;;5100335;28;20047;-80
2022/09/12 12:33:37;;;;;;;17.63;10.35;;;21.50;99.90;;;;;;5096617;27;20032;-80
2022/09/12 12:36:09;;;;;;;17.10;11.07;;;21.60;99.90;;;;;;5113297;28;20046;-79
2022/09/12 12:38:36;;;;;;;16.30;10.80;;;21.60;99.90;;;;;;5112629;27;20074;-76
2022/09/12 12:41:16;;;;;;;18.63;11.85;;;21.60;99.90;;;;;;5098029;28;20681;-74
2022/09/12 12:43:43;;;;;;;17.27;11.52;;;21.60;99.90;;;;;;5098439;28;20052;-76
2022/09/12 12:46:11;;;;;;;17.60;11.93;;;21.60;99.90;;;;;;5098592;28;20488;-80
2022/09/12 12:48:48;;;;;;;16.75;12.15;;;21.60;99.90;;;;;;5101975;28;20052;-80
2022/09/12 12:51:34;;;;;;;16.30;11.35;;;21.60;99.90;;;;;;5094454;28;20043;-84
2022/09/12 12:54:22;;;;;;;15.93;11.00;;;21.60;99.90;;;;;;5110241;28;20046;-82
2022/09/12 12:56:50;;;;;;;13.85;10.30;;;21.50;99.90;;;;;;5099345;28;20492;-81